sensor_id;sensor_type;location;lat;lon;timestamp;P1;durP1;ratioP1;P2;durP2;ratioP2
15363;SDS011;7781;49.690;6.472;2022-10-22T00:00:59;8.73;;;4.10;;
15363;SDS011;7781;49.690;6.472;2022-10-22T00:03:27;16.20;;;3.77;;
15363;SDS011;7781;49.690;6.472;2022-10-22T00:05:55;17.50;;;4.57;;
15363;SDS011;7781;49.690;6.472;2022-10-22T00:08:23;19.63;;;4.70;;
15363;SDS011;7781;49.690;6.472;2022-10-22T00:10:51;19.17;;;5.53;;
15363;SDS011;7781;49.690;6.472;2022-10-22T00:13:19;111.73;;;8.90;;
15363;SDS011;7781;49.690;6.472;2022-10-22T00:15:48;142.60;;;8.43;;
15363;SDS011;7781;49.690;6.472;2022-10-22T00:18:16;34.00;;;5.93;;
15363;SDS011;7781;49.690;6.472;2022-10-22T00:20:44;14.93;;;5.00;;
15363;SDS011;7781;49.690;6.472;2022-10-22T00:23:12;13.23;;;5.10;;
15363;SDS011;7781;49.690;6.472;2022-10-22T00:25:40;12.53;;;5.40;;
15363;SDS011;7781;49.690;6.472;2022-10-22T00:28:08;9.80;;;4.63;;
15363;SDS011;7781;49.690;6.472;2022-10-22T00:30:37;6.60;;;4.67;;
15363;SDS011;7781;49.690;6.472;2022-10-22T00:33:07;7.40;;;5.03;;
15363;SDS011;7781;49.690;6.472;2022-10-22T00:35:35;18.30;;;4.57;;
15363;SDS011;7781;49.690;6.472;2022-10-22T00:38:02;10.93;;;4.43;;
15363;SDS011;7781;49.690;6.472;2022-10-22T00:40:30;13.20;;;5.17;;
15363;SDS011;7781;49.690;6.472;2022-10-22T00:42:58;11.70;;;5.10;;
15363;SDS011;7781;49.690;6.472;2022-10-22T00:45:27;10.77;;;5.80;;
15363;SDS011;7781;49.690;6.472;2022-10-22T00:47:56;11.20;;;5.63;;
15363;SDS011;7781;49.690;6.472;2022-10-22T00:50:30;11.93;;;5.87;;
15363;SDS011;7781;49.690;6.472;2022-10-22T00:53:00;7.93;;;5.50;;
15363;SDS011;7781;49.690;6.472;2022-10-22T00:55:30;7.90;;;5.33;;
15363;SDS011;7781;49.690;6.472;2022-10-22T00:58:00;15.80;;;6.17;;
15363;SDS011;7781;49.690;6.472;2022-10-22T01:00:28;16.87;;;6.00;;
15363;SDS011;7781;49.690;6.472;2022-10-22T01:02:57;13.03;;;6.17;;
15363;SDS011;7781;49.690;6.472;2022-10-22T01:05:26;12.70;;;6.40;;
15363;SDS011;7781;49.690;6.472;2022-10-22T01:07:56;17.10;;;6.00;;
15363;SDS011;7781;49.690;6.472;2022-10-22T01:10:45;9.30;;;4.97;;
15363;SDS011;7781;49.690;6.472;2022-10-22T01:13:23;16.80;;;5.70;;
15363;SDS011;7781;49.690;6.472;2022-10-22T01:15:58;12.53;;;6.00;;
15363;SDS011;7781;49.690;6.472;2022-10-22T01:18:35;9.00;;;4.33;;
15363;SDS011;7781;49.690;6.472;2022-10-22T01:21:11;17.60;;;5.60;;
15363;SDS011;7781;49.690;6.472;2022-10-22T01:26:52;13.27;;;4.80;;
15363;SDS011;7781;49.690;6.472;2022-10-22T01:29:32;7.83;;;4.10;;
15363;SDS011;7781;49.690;6.472;2022-10-22T01:32:04;15.10;;;4.13;;
15363;SDS011;7781;49.690;6.472;2022-10-22T01:34:36;14.00;;;4.27;;
15363;SDS011;7781;49.690;6.472;2022-10-22T01:37:07;8.17;;;4.07;;
15363;SDS011;7781;49.690;6.472;2022-10-22T01:39:38;17.33;;;4.07;;
15363;SDS011;7781;49.690;6.472;2022-10-22T01:42:08;11.20;;;3.40;;
15363;SDS011;7781;49.690;6.472;2022-10-22T01:44:40;17.00;;;8.20;;
15363;SDS011;7781;49.690;6.472;2022-10-22T01:47:13;12.73;;;5.00;;
15363;SDS011;7781;49.690;6.472;2022-10-22T01:49:49;8.97;;;4.50;;
15363;SDS011;7781;49.690;6.472;2022-10-22T01:52:30;11.43;;;4.20;;
15363;SDS011;7781;49.690;6.472;2022-10-22T01:55:09;10.40;;;4.70;;
15363;SDS011;7781;49.690;6.472;2022-10-22T01:57:47;9.13;;;3.93;;
15363;SDS011;7781;49.690;6.472;2022-10-22T02:00:25;7.90;;;4.13;;
15363;SDS011;7781;49.690;6.472;2022-10-22T02:02:55;12.67;;;3.63;;
15363;SDS011;7781;49.690;6.472;2022-10-22T02:05:29;8.23;;;3.87;;
15363;SDS011;7781;49.690;6.472;2022-10-22T02:08:04;13.10;;;3.70;;
15363;SDS011;7781;49.690;6.472;2022-10-22T02:10:35;9.23;;;4.27;;
15363;SDS011;7781;49.690;6.472;2022-10-22T02:13:06;5.60;;;4.10;;
15363;SDS011;7781;49.690;6.472;2022-10-22T02:15:39;9.27;;;4.20;;
15363;SDS011;7781;49.690;6.472;2022-10-22T02:18:11;7.70;;;3.70;;
15363;SDS011;7781;49.690;6.472;2022-10-22T02:20:40;20.10;;;3.87;;
15363;SDS011;7781;49.690;6.472;2022-10-22T02:23:09;6.77;;;3.33;;
15363;SDS011;7781;49.690;6.472;2022-10-22T02:25:38;4.93;;;3.50;;
15363;SDS011;7781;49.690;6.472;2022-10-22T02:28:10;6.80;;;3.37;;
15363;SDS011;7781;49.690;6.472;2022-10-22T02:30:45;6.40;;;3.90;;
15363;SDS011;7781;49.690;6.472;2022-10-22T02:33:18;7.73;;;3.20;;
15363;SDS011;7781;49.690;6.472;2022-10-22T02:35:49;4.93;;;3.20;;
15363;SDS011;7781;49.690;6.472;2022-10-22T02:38:19;16.77;;;3.87;;
15363;SDS011;7781;49.690;6.472;2022-10-22T02:40:49;5.30;;;2.87;;
15363;SDS011;7781;49.690;6.472;2022-10-22T02:43:18;13.40;;;3.77;;
15363;SDS011;7781;49.690;6.472;2022-10-22T02:45:47;9.27;;;3.80;;
15363;SDS011;7781;49.690;6.472;2022-10-22T02:48:15;10.00;;;2.67;;
15363;SDS011;7781;49.690;6.472;2022-10-22T02:50:44;4.20;;;3.13;;
15363;SDS011;7781;49.690;6.472;2022-10-22T02:53:12;15.00;;;3.43;;
15363;SDS011;7781;49.690;6.472;2022-10-22T02:55:39;7.63;;;3.37;;
15363;SDS011;7781;49.690;6.472;2022-10-22T02:58:07;8.03;;;2.60;;
15363;SDS011;7781;49.690;6.472;2022-10-22T03:00:36;8.20;;;3.00;;
15363;SDS011;7781;49.690;6.472;2022-10-22T03:03:05;6.13;;;2.80;;
15363;SDS011;7781;49.690;6.472;2022-10-22T03:05:33;8.40;;;2.90;;
15363;SDS011;7781;49.690;6.472;2022-10-22T03:08:01;5.60;;;3.43;;
15363;SDS011;7781;49.690;6.472;2022-10-22T03:10:29;7.53;;;2.90;;
15363;SDS011;7781;49.690;6.472;2022-10-22T03:12:57;7.60;;;2.67;;
15363;SDS011;7781;49.690;6.472;2022-10-22T03:15:25;7.40;;;3.20;;
15363;SDS011;7781;49.690;6.472;2022-10-22T03:17:58;10.80;;;2.67;;
15363;SDS011;7781;49.690;6.472;2022-10-22T03:20:27;8.23;;;2.40;;
15363;SDS011;7781;49.690;6.472;2022-10-22T03:22:56;7.43;;;2.60;;
15363;SDS011;7781;49.690;6.472;2022-10-22T03:25:24;7.10;;;2.20;;
15363;SDS011;7781;49.690;6.472;2022-10-22T03:27:54;2.33;;;2.10;;
15363;SDS011;7781;49.690;6.472;2022-10-22T03:30:27;6.30;;;2.27;;
15363;SDS011;7781;49.690;6.472;2022-10-22T03:32:55;2.80;;;2.13;;
15363;SDS011;7781;49.690;6.472;2022-10-22T03:35:23;5.33;;;2.40;;
15363;SDS011;7781;49.690;6.472;2022-10-22T03:37:53;12.70;;;2.63;;
15363;SDS011;7781;49.690;6.472;2022-10-22T03:40:22;2.90;;;1.90;;
15363;SDS011;7781;49.690;6.472;2022-10-22T03:42:50;9.43;;;2.70;;
15363;SDS011;7781;49.690;6.472;2022-10-22T03:45:18;4.60;;;2.03;;
15363;SDS011;7781;49.690;6.472;2022-10-22T03:47:46;3.47;;;1.87;;
15363;SDS011;7781;49.690;6.472;2022-10-22T03:50:15;2.70;;;1.70;;
15363;SDS011;7781;49.690;6.472;2022-10-22T03:52:43;4.37;;;2.10;;
15363;SDS011;7781;49.690;6.472;2022-10-22T03:55:13;4.30;;;1.80;;
15363;SDS011;7781;49.690;6.472;2022-10-22T03:57:41;4.13;;;2.07;;
15363;SDS011;7781;49.690;6.472;2022-10-22T04:00:09;6.00;;;1.80;;
15363;SDS011;7781;49.690;6.472;2022-10-22T04:02:37;3.10;;;1.67;;
15363;SDS011;7781;49.690;6.472;2022-10-22T04:05:06;3.03;;;1.63;;
15363;SDS011;7781;49.690;6.472;2022-10-22T04:07:34;3.37;;;1.80;;
15363;SDS011;7781;49.690;6.472;2022-10-22T04:10:03;3.70;;;2.30;;
15363;SDS011;7781;49.690;6.472;2022-10-22T04:12:33;7.40;;;2.40;;
15363;SDS011;7781;49.690;6.472;2022-10-22T04:15:01;8.40;;;2.47;;
15363;SDS011;7781;49.690;6.472;2022-10-22T04:17:31;8.37;;;2.37;;
15363;SDS011;7781;49.690;6.472;2022-10-22T04:20:01;5.50;;;2.23;;
15363;SDS011;7781;49.690;6.472;2022-10-22T04:22:31;10.33;;;2.10;;
15363;SDS011;7781;49.690;6.472;2022-10-22T04:25:00;7.00;;;1.97;;
15363;SDS011;7781;49.690;6.472;2022-10-22T04:27:28;7.20;;;2.33;;
15363;SDS011;7781;49.690;6.472;2022-10-22T04:29:58;11.27;;;2.47;;
15363;SDS011;7781;49.690;6.472;2022-10-22T04:32:26;8.43;;;2.40;;
15363;SDS011;7781;49.690;6.472;2022-10-22T04:34:54;2.10;;;1.83;;
15363;SDS011;7781;49.690;6.472;2022-10-22T04:37:22;13.27;;;2.07;;
15363;SDS011;7781;49.690;6.472;2022-10-22T04:39:50;5.67;;;1.90;;
15363;SDS011;7781;49.690;6.472;2022-10-22T04:42:18;6.43;;;2.13;;
15363;SDS011;7781;49.690;6.472;2022-10-22T04:44:46;9.13;;;2.00;;
15363;SDS011;7781;49.690;6.472;2022-10-22T04:47:16;2.20;;;1.70;;
15363;SDS011;7781;49.690;6.472;2022-10-22T04:49:44;3.23;;;1.87;;
15363;SDS011;7781;49.690;6.472;2022-10-22T04:52:11;5.87;;;2.30;;
15363;SDS011;7781;49.690;6.472;2022-10-22T04:54:39;5.30;;;2.10;;
15363;SDS011;7781;49.690;6.472;2022-10-22T04:57:07;6.63;;;2.03;;
15363;SDS011;7781;49.690;6.472;2022-10-22T04:59:35;4.00;;;1.87;;
15363;SDS011;7781;49.690;6.472;2022-10-22T05:02:04;3.70;;;1.90;;
15363;SDS011;7781;49.690;6.472;2022-10-22T05:04:33;3.00;;;2.00;;
15363;SDS011;7781;49.690;6.472;2022-10-22T05:07:01;2.67;;;1.90;;
15363;SDS011;7781;49.690;6.472;2022-10-22T05:09:29;2.83;;;1.60;;
15363;SDS011;7781;49.690;6.472;2022-10-22T05:11:57;5.20;;;1.80;;
15363;SDS011;7781;49.690;6.472;2022-10-22T05:14:25;7.10;;;2.20;;
15363;SDS011;7781;49.690;6.472;2022-10-22T05:16:53;4.93;;;1.90;;
15363;SDS011;7781;49.690;6.472;2022-10-22T05:19:22;2.70;;;1.90;;
15363;SDS011;7781;49.690;6.472;2022-10-22T05:21:54;2.70;;;1.40;;
15363;SDS011;7781;49.690;6.472;2022-10-22T05:24:23;4.90;;;1.70;;
15363;SDS011;7781;49.690;6.472;2022-10-22T05:26:52;8.40;;;1.73;;
15363;SDS011;7781;49.690;6.472;2022-10-22T05:29:21;2.20;;;1.20;;
15363;SDS011;7781;49.690;6.472;2022-10-22T05:31:49;4.17;;;1.47;;
15363;SDS011;7781;49.690;6.472;2022-10-22T05:34:18;4.93;;;1.40;;
15363;SDS011;7781;49.690;6.472;2022-10-22T05:36:46;2.87;;;1.30;;
15363;SDS011;7781;49.690;6.472;2022-10-22T05:39:16;2.07;;;1.67;;
15363;SDS011;7781;49.690;6.472;2022-10-22T05:41:44;3.77;;;1.20;;
15363;SDS011;7781;49.690;6.472;2022-10-22T05:44:12;5.53;;;1.10;;
15363;SDS011;7781;49.690;6.472;2022-10-22T05:46:40;1.70;;;1.40;;
15363;SDS011;7781;49.690;6.472;2022-10-22T05:49:11;1.23;;;0.97;;
15363;SDS011;7781;49.690;6.472;2022-10-22T05:51:40;4.03;;;1.70;;
15363;SDS011;7781;49.690;6.472;2022-10-22T05:54:10;8.50;;;1.47;;
15363;SDS011;7781;49.690;6.472;2022-10-22T05:56:45;2.97;;;1.50;;
15363;SDS011;7781;49.690;6.472;2022-10-22T05:59:13;3.23;;;1.43;;
15363;SDS011;7781;49.690;6.472;2022-10-22T06:01:41;5.57;;;1.70;;
15363;SDS011;7781;49.690;6.472;2022-10-22T06:04:10;3.83;;;1.90;;
15363;SDS011;7781;49.690;6.472;2022-10-22T06:06:40;1.40;;;1.30;;
15363;SDS011;7781;49.690;6.472;2022-10-22T06:09:12;1.50;;;1.40;;
15363;SDS011;7781;49.690;6.472;2022-10-22T06:11:45;2.50;;;1.57;;
15363;SDS011;7781;49.690;6.472;2022-10-22T06:14:13;1.97;;;1.30;;
15363;SDS011;7781;49.690;6.472;2022-10-22T06:16:42;1.53;;;1.00;;
15363;SDS011;7781;49.690;6.472;2022-10-22T06:19:10;5.50;;;1.30;;
15363;SDS011;7781;49.690;6.472;2022-10-22T06:21:40;2.70;;;1.23;;
15363;SDS011;7781;49.690;6.472;2022-10-22T06:24:09;1.17;;;1.07;;
15363;SDS011;7781;49.690;6.472;2022-10-22T06:26:37;2.80;;;1.20;;
15363;SDS011;7781;49.690;6.472;2022-10-22T06:29:07;5.63;;;1.40;;
15363;SDS011;7781;49.690;6.472;2022-10-22T06:31:36;2.07;;;1.10;;
15363;SDS011;7781;49.690;6.472;2022-10-22T06:34:05;1.77;;;1.23;;
15363;SDS011;7781;49.690;6.472;2022-10-22T06:36:34;3.67;;;1.20;;
15363;SDS011;7781;49.690;6.472;2022-10-22T06:39:02;1.87;;;1.07;;
15363;SDS011;7781;49.690;6.472;2022-10-22T06:41:31;4.40;;;1.50;;
15363;SDS011;7781;49.690;6.472;2022-10-22T06:43:59;6.30;;;1.43;;
15363;SDS011;7781;49.690;6.472;2022-10-22T06:46:28;2.07;;;1.10;;
15363;SDS011;7781;49.690;6.472;2022-10-22T06:48:57;1.80;;;1.10;;
15363;SDS011;7781;49.690;6.472;2022-10-22T06:51:27;2.70;;;1.00;;
15363;SDS011;7781;49.690;6.472;2022-10-22T06:53:56;1.40;;;1.30;;
15363;SDS011;7781;49.690;6.472;2022-10-22T06:56:26;8.80;;;1.10;;
15363;SDS011;7781;49.690;6.472;2022-10-22T06:58:55;2.50;;;1.10;;
15363;SDS011;7781;49.690;6.472;2022-10-22T07:01:25;6.03;;;1.40;;
15363;SDS011;7781;49.690;6.472;2022-10-22T07:03:55;2.90;;;1.20;;
15363;SDS011;7781;49.690;6.472;2022-10-22T07:06:24;2.73;;;1.27;;
15363;SDS011;7781;49.690;6.472;2022-10-22T07:08:53;4.67;;;1.17;;
15363;SDS011;7781;49.690;6.472;2022-10-22T07:11:23;4.53;;;1.60;;
15363;SDS011;7781;49.690;6.472;2022-10-22T07:13:53;2.03;;;1.30;;
15363;SDS011;7781;49.690;6.472;2022-10-22T07:16:22;8.50;;;1.40;;
15363;SDS011;7781;49.690;6.472;2022-10-22T07:18:59;6.10;;;1.83;;
15363;SDS011;7781;49.690;6.472;2022-10-22T07:21:27;7.90;;;2.17;;
15363;SDS011;7781;49.690;6.472;2022-10-22T07:23:55;4.00;;;2.37;;
15363;SDS011;7781;49.690;6.472;2022-10-22T07:29:33;5.43;;;2.77;;
15363;SDS011;7781;49.690;6.472;2022-10-22T07:32:01;5.23;;;2.03;;
15363;SDS011;7781;49.690;6.472;2022-10-22T07:34:31;10.83;;;3.50;;
15363;SDS011;7781;49.690;6.472;2022-10-22T07:36:59;8.17;;;3.20;;
15363;SDS011;7781;49.690;6.472;2022-10-22T07:39:27;36.50;;;4.30;;
15363;SDS011;7781;49.690;6.472;2022-10-22T07:41:55;13.40;;;4.03;;
15363;SDS011;7781;49.690;6.472;2022-10-22T07:44:23;20.60;;;3.60;;
15363;SDS011;7781;49.690;6.472;2022-10-22T07:46:51;6.07;;;2.70;;
15363;SDS011;7781;49.690;6.472;2022-10-22T07:49:19;7.53;;;2.40;;
15363;SDS011;7781;49.690;6.472;2022-10-22T07:51:49;5.80;;;1.90;;
15363;SDS011;7781;49.690;6.472;2022-10-22T07:54:17;4.40;;;1.90;;
15363;SDS011;7781;49.690;6.472;2022-10-22T07:56:45;3.47;;;1.60;;
15363;SDS011;7781;49.690;6.472;2022-10-22T07:59:13;6.73;;;1.60;;
15363;SDS011;7781;49.690;6.472;2022-10-22T08:01:41;7.10;;;1.87;;
15363;SDS011;7781;49.690;6.472;2022-10-22T08:04:09;10.20;;;4.97;;
15363;SDS011;7781;49.690;6.472;2022-10-22T08:06:37;17.70;;;5.77;;
15363;SDS011;7781;49.690;6.472;2022-10-22T08:09:12;37.13;;;4.77;;
15363;SDS011;7781;49.690;6.472;2022-10-22T08:11:40;7.97;;;2.07;;
15363;SDS011;7781;49.690;6.472;2022-10-22T08:14:08;12.10;;;2.90;;
15363;SDS011;7781;49.690;6.472;2022-10-22T08:16:36;3.30;;;1.20;;
15363;SDS011;7781;49.690;6.472;2022-10-22T08:19:05;10.47;;;1.70;;
15363;SDS011;7781;49.690;6.472;2022-10-22T08:21:34;2.73;;;1.10;;
15363;SDS011;7781;49.690;6.472;2022-10-22T08:24:02;7.50;;;1.67;;
15363;SDS011;7781;49.690;6.472;2022-10-22T08:26:31;3.53;;;1.23;;
15363;SDS011;7781;49.690;6.472;2022-10-22T08:28:59;1.40;;;0.90;;
15363;SDS011;7781;49.690;6.472;2022-10-22T08:31:27;2.07;;;1.00;;
15363;SDS011;7781;49.690;6.472;2022-10-22T08:33:55;3.83;;;2.20;;
15363;SDS011;7781;49.690;6.472;2022-10-22T08:36:23;4.23;;;1.47;;
15363;SDS011;7781;49.690;6.472;2022-10-22T08:38:52;6.73;;;2.23;;
15363;SDS011;7781;49.690;6.472;2022-10-22T08:41:21;7.17;;;2.60;;
15363;SDS011;7781;49.690;6.472;2022-10-22T08:44:07;4.37;;;1.80;;
15363;SDS011;7781;49.690;6.472;2022-10-22T08:46:59;4.37;;;2.53;;
15363;SDS011;7781;49.690;6.472;2022-10-22T08:49:50;5.60;;;2.07;;
15363;SDS011;7781;49.690;6.472;2022-10-22T08:52:22;3.93;;;1.63;;
15363;SDS011;7781;49.690;6.472;2022-10-22T08:54:51;1.30;;;1.00;;
15363;SDS011;7781;49.690;6.472;2022-10-22T08:57:32;8.10;;;1.50;;
15363;SDS011;7781;49.690;6.472;2022-10-22T09:00:10;6.63;;;2.20;;
15363;SDS011;7781;49.690;6.472;2022-10-22T09:02:45;1.30;;;0.93;;
15363;SDS011;7781;49.690;6.472;2022-10-22T09:05:32;3.10;;;1.20;;
15363;SDS011;7781;49.690;6.472;2022-10-22T09:08:08;2.53;;;1.10;;
15363;SDS011;7781;49.690;6.472;2022-10-22T09:10:38;1.60;;;1.13;;
15363;SDS011;7781;49.690;6.472;2022-10-22T09:13:13;1.70;;;0.97;;
15363;SDS011;7781;49.690;6.472;2022-10-22T09:15:46;3.97;;;1.30;;
15363;SDS011;7781;49.690;6.472;2022-10-22T09:18:21;13.53;;;1.60;;
15363;SDS011;7781;49.690;6.472;2022-10-22T09:20:57;8.30;;;1.50;;
15363;SDS011;7781;49.690;6.472;2022-10-22T09:23:31;8.77;;;1.30;;
15363;SDS011;7781;49.690;6.472;2022-10-22T09:26:07;8.53;;;1.27;;
15363;SDS011;7781;49.690;6.472;2022-10-22T09:28:40;7.33;;;1.07;;
15363;SDS011;7781;49.690;6.472;2022-10-22T09:31:11;2.70;;;1.00;;
15363;SDS011;7781;49.690;6.472;2022-10-22T09:33:41;3.03;;;1.10;;
15363;SDS011;7781;49.690;6.472;2022-10-22T09:36:11;2.73;;;1.00;;
15363;SDS011;7781;49.690;6.472;2022-10-22T09:38:44;6.63;;;1.60;;
15363;SDS011;7781;49.690;6.472;2022-10-22T09:41:13;8.90;;;1.40;;
15363;SDS011;7781;49.690;6.472;2022-10-22T09:43:45;3.43;;;1.50;;
15363;SDS011;7781;49.690;6.472;2022-10-22T09:46:16;3.97;;;1.87;;
15363;SDS011;7781;49.690;6.472;2022-10-22T09:48:46;3.37;;;1.03;;
15363;SDS011;7781;49.690;6.472;2022-10-22T09:51:17;5.30;;;1.17;;
15363;SDS011;7781;49.690;6.472;2022-10-22T09:53:47;2.40;;;1.37;;
15363;SDS011;7781;49.690;6.472;2022-10-22T09:56:24;3.43;;;1.80;;
15363;SDS011;7781;49.690;6.472;2022-10-22T09:58:54;3.33;;;1.33;;
15363;SDS011;7781;49.690;6.472;2022-10-22T10:01:26;4.70;;;1.23;;
15363;SDS011;7781;49.690;6.472;2022-10-22T10:04:00;2.67;;;1.10;;
15363;SDS011;7781;49.690;6.472;2022-10-22T10:06:35;3.53;;;1.00;;
15363;SDS011;7781;49.690;6.472;2022-10-22T10:09:08;5.30;;;1.50;;
15363;SDS011;7781;49.690;6.472;2022-10-22T10:11:42;5.43;;;1.37;;
15363;SDS011;7781;49.690;6.472;2022-10-22T10:14:16;8.17;;;1.40;;
15363;SDS011;7781;49.690;6.472;2022-10-22T10:16:52;7.23;;;1.40;;
15363;SDS011;7781;49.690;6.472;2022-10-22T10:19:26;2.40;;;1.00;;
15363;SDS011;7781;49.690;6.472;2022-10-22T10:22:04;3.13;;;1.20;;
15363;SDS011;7781;49.690;6.472;2022-10-22T10:24:44;4.50;;;1.20;;
15363;SDS011;7781;49.690;6.472;2022-10-22T10:27:24;4.97;;;1.27;;
15363;SDS011;7781;49.690;6.472;2022-10-22T10:29:59;2.57;;;1.10;;
15363;SDS011;7781;49.690;6.472;2022-10-22T10:32:39;5.77;;;1.40;;
15363;SDS011;7781;49.690;6.472;2022-10-22T10:35:35;4.87;;;1.30;;
15363;SDS011;7781;49.690;6.472;2022-10-22T10:38:16;2.73;;;1.30;;
15363;SDS011;7781;49.690;6.472;2022-10-22T10:40:56;4.47;;;1.40;;
15363;SDS011;7781;49.690;6.472;2022-10-22T10:43:36;2.30;;;1.20;;
15363;SDS011;7781;49.690;6.472;2022-10-22T10:46:16;1.67;;;0.90;;
15363;SDS011;7781;49.690;6.472;2022-10-22T10:48:54;9.20;;;1.47;;
15363;SDS011;7781;49.690;6.472;2022-10-22T10:51:36;1.97;;;1.23;;
15363;SDS011;7781;49.690;6.472;2022-10-22T10:54:14;1.73;;;1.30;;
15363;SDS011;7781;49.690;6.472;2022-10-22T10:56:49;3.27;;;1.10;;
15363;SDS011;7781;49.690;6.472;2022-10-22T10:59:22;6.33;;;1.43;;
15363;SDS011;7781;49.690;6.472;2022-10-22T11:02:08;5.57;;;1.40;;
15363;SDS011;7781;49.690;6.472;2022-10-22T11:04:54;3.20;;;1.40;;
15363;SDS011;7781;49.690;6.472;2022-10-22T11:07:50;7.67;;;1.40;;
15363;SDS011;7781;49.690;6.472;2022-10-22T11:10:25;6.73;;;1.30;;
15363;SDS011;7781;49.690;6.472;2022-10-22T11:12:56;6.10;;;1.20;;
15363;SDS011;7781;49.690;6.472;2022-10-22T11:15:32;3.73;;;1.10;;
15363;SDS011;7781;49.690;6.472;2022-10-22T11:18:07;3.13;;;1.07;;
15363;SDS011;7781;49.690;6.472;2022-10-22T11:20:45;8.10;;;1.40;;
15363;SDS011;7781;49.690;6.472;2022-10-22T11:23:21;3.30;;;1.37;;
15363;SDS011;7781;49.690;6.472;2022-10-22T11:25:54;7.17;;;1.90;;
15363;SDS011;7781;49.690;6.472;2022-10-22T11:28:23;3.80;;;1.40;;
15363;SDS011;7781;49.690;6.472;2022-10-22T11:30:57;4.23;;;1.30;;
15363;SDS011;7781;49.690;6.472;2022-10-22T11:33:32;13.43;;;1.37;;
15363;SDS011;7781;49.690;6.472;2022-10-22T11:36:06;4.40;;;1.73;;
15363;SDS011;7781;49.690;6.472;2022-10-22T11:38:35;3.37;;;1.00;;
15363;SDS011;7781;49.690;6.472;2022-10-22T11:41:05;4.57;;;1.40;;
15363;SDS011;7781;49.690;6.472;2022-10-22T11:43:50;5.70;;;1.20;;
15363;SDS011;7781;49.690;6.472;2022-10-22T11:46:25;11.33;;;1.97;;
15363;SDS011;7781;49.690;6.472;2022-10-22T11:49:03;7.30;;;1.30;;
15363;SDS011;7781;49.690;6.472;2022-10-22T11:51:44;8.20;;;2.03;;
15363;SDS011;7781;49.690;6.472;2022-10-22T11:54:30;6.83;;;1.87;;
15363;SDS011;7781;49.690;6.472;2022-10-22T11:57:18;4.90;;;1.50;;
15363;SDS011;7781;49.690;6.472;2022-10-22T11:59:50;6.30;;;1.37;;
15363;SDS011;7781;49.690;6.472;2022-10-22T12:05:18;5.87;;;1.53;;
15363;SDS011;7781;49.690;6.472;2022-10-22T12:08:27;10.57;;;1.60;;
15363;SDS011;7781;49.690;6.472;2022-10-22T12:10:57;5.17;;;1.30;;
15363;SDS011;7781;49.690;6.472;2022-10-22T12:13:31;6.83;;;1.53;;
15363;SDS011;7781;49.690;6.472;2022-10-22T12:16:16;10.83;;;1.70;;
15363;SDS011;7781;49.690;6.472;2022-10-22T12:19:06;5.97;;;1.33;;
15363;SDS011;7781;49.690;6.472;2022-10-22T12:21:41;9.87;;;2.43;;
15363;SDS011;7781;49.690;6.472;2022-10-22T12:24:16;10.73;;;1.80;;
15363;SDS011;7781;49.690;6.472;2022-10-22T12:26:46;6.20;;;1.53;;
15363;SDS011;7781;49.690;6.472;2022-10-22T12:29:18;4.93;;;1.30;;
15363;SDS011;7781;49.690;6.472;2022-10-22T12:31:49;3.80;;;1.40;;
15363;SDS011;7781;49.690;6.472;2022-10-22T12:34:17;12.70;;;1.60;;
15363;SDS011;7781;49.690;6.472;2022-10-22T12:36:49;8.47;;;1.57;;
15363;SDS011;7781;49.690;6.472;2022-10-22T12:39:20;6.13;;;1.33;;
15363;SDS011;7781;49.690;6.472;2022-10-22T12:41:51;7.33;;;1.80;;
15363;SDS011;7781;49.690;6.472;2022-10-22T12:44:21;6.80;;;1.70;;
15363;SDS011;7781;49.690;6.472;2022-10-22T12:46:49;4.03;;;1.60;;
15363;SDS011;7781;49.690;6.472;2022-10-22T12:49:23;9.90;;;1.63;;
15363;SDS011;7781;49.690;6.472;2022-10-22T12:51:54;7.23;;;1.80;;
15363;SDS011;7781;49.690;6.472;2022-10-22T12:54:28;9.23;;;1.47;;
15363;SDS011;7781;49.690;6.472;2022-10-22T12:56:58;7.47;;;1.83;;
15363;SDS011;7781;49.690;6.472;2022-10-22T12:59:27;7.70;;;1.80;;
15363;SDS011;7781;49.690;6.472;2022-10-22T13:01:59;10.03;;;1.67;;
15363;SDS011;7781;49.690;6.472;2022-10-22T13:04:31;6.57;;;1.57;;
15363;SDS011;7781;49.690;6.472;2022-10-22T13:09:57;7.20;;;1.60;;
15363;SDS011;7781;49.690;6.472;2022-10-22T13:12:27;7.27;;;1.50;;
15363;SDS011;7781;49.690;6.472;2022-10-22T13:17:45;7.17;;;1.37;;
15363;SDS011;7781;49.690;6.472;2022-10-22T13:20:16;7.80;;;1.80;;
15363;SDS011;7781;49.690;6.472;2022-10-22T13:22:53;4.23;;;1.27;;
15363;SDS011;7781;49.690;6.472;2022-10-22T13:25:27;9.53;;;2.00;;
15363;SDS011;7781;49.690;6.472;2022-10-22T13:27:57;11.23;;;2.33;;
15363;SDS011;7781;49.690;6.472;2022-10-22T13:30:28;9.10;;;1.70;;
15363;SDS011;7781;49.690;6.472;2022-10-22T13:32:58;5.77;;;1.93;;
15363;SDS011;7781;49.690;6.472;2022-10-22T13:35:29;4.43;;;1.10;;
15363;SDS011;7781;49.690;6.472;2022-10-22T13:37:59;8.63;;;1.57;;
15363;SDS011;7781;49.690;6.472;2022-10-22T13:40:28;8.20;;;1.63;;
15363;SDS011;7781;49.690;6.472;2022-10-22T13:42:56;5.77;;;1.50;;
15363;SDS011;7781;49.690;6.472;2022-10-22T13:45:24;5.87;;;1.40;;
15363;SDS011;7781;49.690;6.472;2022-10-22T13:47:53;5.43;;;1.50;;
15363;SDS011;7781;49.690;6.472;2022-10-22T13:50:22;6.30;;;1.60;;
15363;SDS011;7781;49.690;6.472;2022-10-22T13:52:52;6.77;;;1.50;;
15363;SDS011;7781;49.690;6.472;2022-10-22T13:55:22;5.83;;;1.67;;
15363;SDS011;7781;49.690;6.472;2022-10-22T13:57:52;10.93;;;1.63;;
15363;SDS011;7781;49.690;6.472;2022-10-22T14:00:23;7.17;;;1.57;;
15363;SDS011;7781;49.690;6.472;2022-10-22T14:02:52;7.30;;;1.73;;
15363;SDS011;7781;49.690;6.472;2022-10-22T14:05:23;7.20;;;1.67;;
15363;SDS011;7781;49.690;6.472;2022-10-22T14:07:51;9.63;;;1.77;;
15363;SDS011;7781;49.690;6.472;2022-10-22T14:10:20;6.07;;;1.53;;
15363;SDS011;7781;49.690;6.472;2022-10-22T14:12:50;5.47;;;1.07;;
15363;SDS011;7781;49.690;6.472;2022-10-22T14:15:21;3.70;;;1.40;;
15363;SDS011;7781;49.690;6.472;2022-10-22T14:17:52;6.03;;;1.67;;
15363;SDS011;7781;49.690;6.472;2022-10-22T14:20:23;9.30;;;1.73;;
15363;SDS011;7781;49.690;6.472;2022-10-22T14:22:54;3.10;;;1.20;;
15363;SDS011;7781;49.690;6.472;2022-10-22T14:25:23;9.50;;;2.03;;
15363;SDS011;7781;49.690;6.472;2022-10-22T14:27:53;6.63;;;1.50;;
15363;SDS011;7781;49.690;6.472;2022-10-22T14:30:22;6.73;;;1.50;;
15363;SDS011;7781;49.690;6.472;2022-10-22T14:32:51;5.37;;;1.97;;
15363;SDS011;7781;49.690;6.472;2022-10-22T14:35:20;2.60;;;1.37;;
15363;SDS011;7781;49.690;6.472;2022-10-22T14:37:49;3.33;;;1.40;;
15363;SDS011;7781;49.690;6.472;2022-10-22T14:40:18;3.70;;;1.33;;
15363;SDS011;7781;49.690;6.472;2022-10-22T14:42:47;5.53;;;1.50;;
15363;SDS011;7781;49.690;6.472;2022-10-22T14:45:18;5.10;;;2.17;;
15363;SDS011;7781;49.690;6.472;2022-10-22T14:47:48;6.03;;;1.30;;
15363;SDS011;7781;49.690;6.472;2022-10-22T14:50:17;4.50;;;1.50;;
15363;SDS011;7781;49.690;6.472;2022-10-22T14:52:45;4.23;;;1.40;;
15363;SDS011;7781;49.690;6.472;2022-10-22T14:55:14;3.70;;;1.33;;
15363;SDS011;7781;49.690;6.472;2022-10-22T14:57:43;6.00;;;1.63;;
15363;SDS011;7781;49.690;6.472;2022-10-22T15:00:13;4.70;;;1.23;;
15363;SDS011;7781;49.690;6.472;2022-10-22T15:02:43;7.00;;;1.50;;
15363;SDS011;7781;49.690;6.472;2022-10-22T15:05:12;7.57;;;1.80;;
15363;SDS011;7781;49.690;6.472;2022-10-22T15:07:41;3.23;;;1.13;;
15363;SDS011;7781;49.690;6.472;2022-10-22T15:10:10;6.80;;;1.30;;
15363;SDS011;7781;49.690;6.472;2022-10-22T15:12:38;7.00;;;1.47;;
15363;SDS011;7781;49.690;6.472;2022-10-22T15:15:06;7.67;;;1.70;;
15363;SDS011;7781;49.690;6.472;2022-10-22T15:17:35;6.37;;;1.63;;
15363;SDS011;7781;49.690;6.472;2022-10-22T15:20:04;10.57;;;1.70;;
15363;SDS011;7781;49.690;6.472;2022-10-22T15:22:33;3.87;;;1.47;;
15363;SDS011;7781;49.690;6.472;2022-10-22T15:25:02;9.47;;;1.50;;
15363;SDS011;7781;49.690;6.472;2022-10-22T15:27:33;7.97;;;1.47;;
15363;SDS011;7781;49.690;6.472;2022-10-22T15:30:01;5.90;;;1.43;;
15363;SDS011;7781;49.690;6.472;2022-10-22T15:32:30;12.93;;;2.10;;
15363;SDS011;7781;49.690;6.472;2022-10-22T15:34:59;2.93;;;1.07;;
15363;SDS011;7781;49.690;6.472;2022-10-22T15:37:29;5.23;;;1.50;;